sensor_id;sensor_type;location;lat;lon;timestamp;temperature;humidity
20481;DHT22;10399;50.754;3.366;2023-05-02T00:02:15;14.00;99.90
20481;DHT22;10399;50.754;3.366;2023-05-02T00:04:43;14.00;99.90
20481;DHT22;10399;50.754;3.366;2023-05-02T00:07:11;14.20;99.90
20481;DHT22;10399;50.754;3.366;2023-05-02T00:09:38;14.40;99.90
20481;DHT22;10399;50.754;3.366;2023-05-02T00:12:05;14.30;99.90
20481;DHT22;10399;50.754;3.366;2023-05-02T00:14:32;14.30;99.90
20481;DHT22;10399;50.754;3.366;2023-05-02T00:16:59;14.20;99.90
20481;DHT22;10399;50.754;3.366;2023-05-02T00:19:26;14.30;99.90
20481;DHT22;10399;50.754;3.366;2023-05-02T00:21:55;14.40;99.90
20481;DHT22;10399;50.754;3.366;2023-05-02T00:24:22;14.30;99.90
20481;DHT22;10399;50.754;3.366;2023-05-02T00:26:49;14.20;99.90
20481;DHT22;10399;50.754;3.366;2023-05-02T00:29:16;14.20;99.90
20481;DHT22;10399;50.754;3.366;2023-05-02T00:31:43;14.20;99.90
20481;DHT22;10399;50.754;3.366;2023-05-02T00:34:10;14.10;99.90
20481;DHT22;10399;50.754;3.366;2023-05-02T00:36:37;14.10;99.90
20481;DHT22;10399;50.754;3.366;2023-05-02T00:39:04;14.10;99.90
20481;DHT22;10399;50.754;3.366;2023-05-02T00:41:32;14.10;99.90
20481;DHT22;10399;50.754;3.366;2023-05-02T00:43:59;14.20;99.90
20481;DHT22;10399;50.754;3.366;2023-05-02T00:46:26;14.30;99.90
20481;DHT22;10399;50.754;3.366;2023-05-02T00:48:53;14.30;99.90
20481;DHT22;10399;50.754;3.366;2023-05-02T00:51:20;14.10;99.90
20481;DHT22;10399;50.754;3.366;2023-05-02T00:53:48;14.10;99.90
20481;DHT22;10399;50.754;3.366;2023-05-02T00:56:15;14.10;99.90
20481;DHT22;10399;50.754;3.366;2023-05-02T00:58:43;14.00;99.90
20481;DHT22;10399;50.754;3.366;2023-05-02T01:15:06;14.00;99.90
20481;DHT22;10399;50.754;3.366;2023-05-02T01:17:37;14.10;99.90
20481;DHT22;10399;50.754;3.366;2023-05-02T01:20:07;14.10;99.90
20481;DHT22;10399;50.754;3.366;2023-05-02T01:22:37;14.20;99.90
20481;DHT22;10399;50.754;3.366;2023-05-02T01:30:45;14.20;99.90
20481;DHT22;10399;50.754;3.366;2023-05-02T01:33:16;14.20;99.90
20481;DHT22;10399;50.754;3.366;2023-05-02T01:35:46;14.20;99.90
20481;DHT22;10399;50.754;3.366;2023-05-02T01:38:17;14.10;99.90
20481;DHT22;10399;50.754;3.366;2023-05-02T01:40:46;14.00;99.90
20481;DHT22;10399;50.754;3.366;2023-05-02T01:43:14;14.00;99.90
20481;DHT22;10399;50.754;3.366;2023-05-02T01:45:44;14.10;99.90
20481;DHT22;10399;50.754;3.366;2023-05-02T01:48:13;13.90;99.90
20481;DHT22;10399;50.754;3.366;2023-05-02T01:50:43;13.90;99.90
20481;DHT22;10399;50.754;3.366;2023-05-02T01:53:11;13.90;99.90
20481;DHT22;10399;50.754;3.366;2023-05-02T01:55:43;13.80;99.90
20481;DHT22;10399;50.754;3.366;2023-05-02T01:58:11;13.90;99.90
20481;DHT22;10399;50.754;3.366;2023-05-02T02:00:40;13.90;99.90
20481;DHT22;10399;50.754;3.366;2023-05-02T02:03:08;13.80;99.90
20481;DHT22;10399;50.754;3.366;2023-05-02T02:05:36;13.80;99.90
20481;DHT22;10399;50.754;3.366;2023-05-02T02:08:05;13.70;99.90
20481;DHT22;10399;50.754;3.366;2023-05-02T02:10:36;13.80;99.90
20481;DHT22;10399;50.754;3.366;2023-05-02T02:13:30;13.90;99.90
20481;DHT22;10399;50.754;3.366;2023-05-02T02:16:03;13.90;99.90
20481;DHT22;10399;50.754;3.366;2023-05-02T02:18:35;14.00;99.90
20481;DHT22;10399;50.754;3.366;2023-05-02T02:21:06;14.00;99.90
20481;DHT22;10399;50.754;3.366;2023-05-02T02:23:36;14.00;99.90
20481;DHT22;10399;50.754;3.366;2023-05-02T02:26:04;14.10;99.90
20481;DHT22;10399;50.754;3.366;2023-05-02T02:28:33;14.10;99.90
20481;DHT22;10399;50.754;3.366;2023-05-02T02:31:01;14.00;99.90
20481;DHT22;10399;50.754;3.366;2023-05-02T02:33:29;13.90;99.90
20481;DHT22;10399;50.754;3.366;2023-05-02T02:36:07;14.00;99.90
20481;DHT22;10399;50.754;3.366;2023-05-02T02:41:25;13.90;99.90
20481;DHT22;10399;50.754;3.366;2023-05-02T02:44:09;13.90;99.90
20481;DHT22;10399;50.754;3.366;2023-05-02T02:52:27;13.70;99.90
20481;DHT22;10399;50.754;3.366;2023-05-02T02:55:28;13.70;99.90
20481;DHT22;10399;50.754;3.366;2023-05-02T02:58:01;13.70;99.90
20481;DHT22;10399;50.754;3.366;2023-05-02T03:00:31;13.70;99.90
20481;DHT22;10399;50.754;3.366;2023-05-02T03:02:59;13.70;99.90
20481;DHT22;10399;50.754;3.366;2023-05-02T03:05:26;13.70;99.90
20481;DHT22;10399;50.754;3.366;2023-05-02T03:07:55;13.60;99.90
20481;DHT22;10399;50.754;3.366;2023-05-02T03:10:24;13.70;99.90
20481;DHT22;10399;50.754;3.366;2023-05-02T03:12:51;13.60;99.90
20481;DHT22;10399;50.754;3.366;2023-05-02T03:18:16;13.60;99.90
20481;DHT22;10399;50.754;3.366;2023-05-02T03:20:44;13.60;99.90
20481;DHT22;10399;50.754;3.366;2023-05-02T03:23:12;13.60;99.90
20481;DHT22;10399;50.754;3.366;2023-05-02T03:25:39;13.60;99.90
20481;DHT22;10399;50.754;3.366;2023-05-02T03:28:06;13.50;99.90
20481;DHT22;10399;50.754;3.366;2023-05-02T03:30:33;13.50;99.90
20481;DHT22;10399;50.754;3.366;2023-05-02T03:33:00;13.40;99.90
20481;DHT22;10399;50.754;3.366;2023-05-02T03:35:30;13.30;99.90
20481;DHT22;10399;50.754;3.366;2023-05-02T03:37:57;13.10;99.90
20481;DHT22;10399;50.754;3.366;2023-05-02T03:40:24;13.20;99.90
20481;DHT22;10399;50.754;3.366;2023-05-02T03:42:53;13.30;99.90
20481;DHT22;10399;50.754;3.366;2023-05-02T03:45:20;13.20;99.90
20481;DHT22;10399;50.754;3.366;2023-05-02T03:47:47;13.20;99.90
20481;DHT22;10399;50.754;3.366;2023-05-02T03:50:15;13.10;99.90
20481;DHT22;10399;50.754;3.366;2023-05-02T03:52:42;13.00;99.90
20481;DHT22;10399;50.754;3.366;2023-05-02T03:55:09;13.00;99.90
20481;DHT22;10399;50.754;3.366;2023-05-02T03:57:36;12.90;99.90
20481;DHT22;10399;50.754;3.366;2023-05-02T04:00:04;13.00;99.90
20481;DHT22;10399;50.754;3.366;2023-05-02T04:02:32;12.80;99.90
20481;DHT22;10399;50.754;3.366;2023-05-02T04:04:59;12.70;99.90
20481;DHT22;10399;50.754;3.366;2023-05-02T04:07:25;12.80;99.90
20481;DHT22;10399;50.754;3.366;2023-05-02T04:09:52;12.60;99.90
20481;DHT22;10399;50.754;3.366;2023-05-02T04:12:20;12.60;99.90
20481;DHT22;10399;50.754;3.366;2023-05-02T04:14:47;12.50;99.90
20481;DHT22;10399;50.754;3.366;2023-05-02T04:17:14;12.50;99.90
20481;DHT22;10399;50.754;3.366;2023-05-02T04:19:42;12.40;99.90
20481;DHT22;10399;50.754;3.366;2023-05-02T04:22:09;12.50;99.90
20481;DHT22;10399;50.754;3.366;2023-05-02T04:24:35;12.40;99.90
20481;DHT22;10399;50.754;3.366;2023-05-02T04:27:02;12.40;99.90
20481;DHT22;10399;50.754;3.366;2023-05-02T04:29:29;12.30;99.90
20481;DHT22;10399;50.754;3.366;2023-05-02T04:31:56;12.20;99.90
20481;DHT22;10399;50.754;3.366;2023-05-02T04:34:24;12.20;99.90
20481;DHT22;10399;50.754;3.366;2023-05-02T04:36:51;12.10;99.90
20481;DHT22;10399;50.754;3.366;2023-05-02T04:39:17;12.20;99.90
20481;DHT22;10399;50.754;3.366;2023-05-02T04:41:44;12.30;99.90
20481;DHT22;10399;50.754;3.366;2023-05-02T04:44:12;12.40;99.90
20481;DHT22;10399;50.754;3.366;2023-05-02T04:46:39;12.70;99.90
20481;DHT22;10399;50.754;3.366;2023-05-02T04:49:06;12.90;99.90
20481;DHT22;10399;50.754;3.366;2023-05-02T04:51:36;13.00;99.90
20481;DHT22;10399;50.754;3.366;2023-05-02T04:54:03;13.10;99.90
20481;DHT22;10399;50.754;3.366;2023-05-02T04:56:30;13.20;99.90
20481;DHT22;10399;50.754;3.366;2023-05-02T04:58:57;13.30;99.90
20481;DHT22;10399;50.754;3.366;2023-05-02T05:01:24;13.50;99.90
20481;DHT22;10399;50.754;3.366;2023-05-02T05:03:55;13.30;99.90
20481;DHT22;10399;50.754;3.366;2023-05-02T05:06:22;13.40;99.90
20481;DHT22;10399;50.754;3.366;2023-05-02T05:08:50;13.40;99.90
20481;DHT22;10399;50.754;3.366;2023-05-02T05:11:18;13.30;99.90
20481;DHT22;10399;50.754;3.366;2023-05-02T05:13:45;13.30;99.90
20481;DHT22;10399;50.754;3.366;2023-05-02T05:16:12;13.30;99.90
20481;DHT22;10399;50.754;3.366;2023-05-02T05:18:39;13.20;99.90
20481;DHT22;10399;50.754;3.366;2023-05-02T05:21:07;13.30;99.90
20481;DHT22;10399;50.754;3.366;2023-05-02T05:23:35;13.20;99.90
20481;DHT22;10399;50.754;3.366;2023-05-02T05:26:09;13.10;99.90
20481;DHT22;10399;50.754;3.366;2023-05-02T05:28:37;13.30;99.90
20481;DHT22;10399;50.754;3.366;2023-05-02T05:31:08;13.40;99.90
20481;DHT22;10399;50.754;3.366;2023-05-02T05:33:37;13.50;99.90
20481;DHT22;10399;50.754;3.366;2023-05-02T05:36:09;13.50;99.90
20481;DHT22;10399;50.754;3.366;2023-05-02T05:38:37;13.50;99.90
20481;DHT22;10399;50.754;3.366;2023-05-02T05:41:04;13.60;99.90
20481;DHT22;10399;50.754;3.366;2023-05-02T05:43:33;13.70;99.90
20481;DHT22;10399;50.754;3.366;2023-05-02T05:46:04;13.70;99.90
20481;DHT22;10399;50.754;3.366;2023-05-02T05:48:31;13.60;99.90
20481;DHT22;10399;50.754;3.366;2023-05-02T05:51:02;13.60;99.90
20481;DHT22;10399;50.754;3.366;2023-05-02T05:53:32;13.60;99.90
20481;DHT22;10399;50.754;3.366;2023-05-02T05:56:07;13.70;99.90
20481;DHT22;10399;50.754;3.366;2023-05-02T05:58:34;13.70;99.90
20481;DHT22;10399;50.754;3.366;2023-05-02T06:01:01;13.70;99.90
20481;DHT22;10399;50.754;3.366;2023-05-02T06:03:28;13.80;99.90
20481;DHT22;10399;50.754;3.366;2023-05-02T06:05:55;13.80;99.90
20481;DHT22;10399;50.754;3.366;2023-05-02T06:08:23;13.80;99.90
20481;DHT22;10399;50.754;3.366;2023-05-02T06:10:50;13.90;99.90
20481;DHT22;10399;50.754;3.366;2023-05-02T06:13:17;13.90;99.90
20481;DHT22;10399;50.754;3.366;2023-05-02T06:15:44;13.80;99.90
20481;DHT22;10399;50.754;3.366;2023-05-02T06:18:11;13.70;99.90
20481;DHT22;10399;50.754;3.366;2023-05-02T06:20:38;13.70;99.90
20481;DHT22;10399;50.754;3.366;2023-05-02T06:23:05;13.60;99.90
20481;DHT22;10399;50.754;3.366;2023-05-02T06:25:32;13.50;99.90
20481;DHT22;10399;50.754;3.366;2023-05-02T06:28:02;13.40;99.90
20481;DHT22;10399;50.754;3.366;2023-05-02T06:30:29;13.50;99.90
20481;DHT22;10399;50.754;3.366;2023-05-02T06:32:56;13.50;99.90
20481;DHT22;10399;50.754;3.366;2023-05-02T06:35:25;13.50;99.90
20481;DHT22;10399;50.754;3.366;2023-05-02T06:37:52;13.60;99.90
20481;DHT22;10399;50.754;3.366;2023-05-02T06:40:18;13.60;99.90
20481;DHT22;10399;50.754;3.366;2023-05-02T06:42:46;13.50;99.90
20481;DHT22;10399;50.754;3.366;2023-05-02T06:45:13;13.70;99.90
20481;DHT22;10399;50.754;3.366;2023-05-02T06:47:41;13.80;99.90
20481;DHT22;10399;50.754;3.366;2023-05-02T06:50:08;13.80;99.90
20481;DHT22;10399;50.754;3.366;2023-05-02T06:52:35;14.00;99.90
20481;DHT22;10399;50.754;3.366;2023-05-02T06:55:02;14.20;99.90
20481;DHT22;10399;50.754;3.366;2023-05-02T06:57:29;14.30;99.90
20481;DHT22;10399;50.754;3.366;2023-05-02T06:59:56;14.50;99.90
20481;DHT22;10399;50.754;3.366;2023-05-02T07:02:23;14.40;99.90
20481;DHT22;10399;50.754;3.366;2023-05-02T07:04:51;14.50;99.90
20481;DHT22;10399;50.754;3.366;2023-05-02T07:07:18;14.60;99.90
20481;DHT22;10399;50.754;3.366;2023-05-02T07:09:46;14.60;99.90
20481;DHT22;10399;50.754;3.366;2023-05-02T07:12:14;14.60;99.90
20481;DHT22;10399;50.754;3.366;2023-05-02T07:14:41;14.60;99.90
20481;DHT22;10399;50.754;3.366;2023-05-02T07:17:08;14.40;99.90
20481;DHT22;10399;50.754;3.366;2023-05-02T07:19:36;14.40;99.90
20481;DHT22;10399;50.754;3.366;2023-05-02T07:22:02;14.20;99.90
20481;DHT22;10399;50.754;3.366;2023-05-02T07:24:30;14.20;99.90
20481;DHT22;10399;50.754;3.366;2023-05-02T07:26:56;14.30;99.90
20481;DHT22;10399;50.754;3.366;2023-05-02T07:29:23;14.50;99.90
20481;DHT22;10399;50.754;3.366;2023-05-02T07:31:50;14.50;99.90
20481;DHT22;10399;50.754;3.366;2023-05-02T07:34:17;14.40;99.90
20481;DHT22;10399;50.754;3.366;2023-05-02T07:36:44;14.50;99.90
20481;DHT22;10399;50.754;3.366;2023-05-02T07:39:11;14.70;99.90
20481;DHT22;10399;50.754;3.366;2023-05-02T07:41:38;14.80;99.90
20481;DHT22;10399;50.754;3.366;2023-05-02T07:44:05;14.70;99.90
20481;DHT22;10399;50.754;3.366;2023-05-02T07:46:32;14.90;99.90
20481;DHT22;10399;50.754;3.366;2023-05-02T07:48:59;14.80;99.90
20481;DHT22;10399;50.754;3.366;2023-05-02T07:51:26;14.90;99.90
20481;DHT22;10399;50.754;3.366;2023-05-02T07:53:53;15.10;99.90
20481;DHT22;10399;50.754;3.366;2023-05-02T07:56:24;15.10;99.90
20481;DHT22;10399;50.754;3.366;2023-05-02T07:58:51;15.00;99.90
20481;DHT22;10399;50.754;3.366;2023-05-02T08:01:18;15.10;99.90
20481;DHT22;10399;50.754;3.366;2023-05-02T08:03:45;15.20;99.90
20481;DHT22;10399;50.754;3.366;2023-05-02T08:06:14;15.20;99.90
20481;DHT22;10399;50.754;3.366;2023-05-02T08:08:41;15.60;99.90
20481;DHT22;10399;50.754;3.366;2023-05-02T08:11:09;15.80;99.90
20481;DHT22;10399;50.754;3.366;2023-05-02T08:13:36;15.80;99.90
20481;DHT22;10399;50.754;3.366;2023-05-02T08:16:03;15.90;99.90
20481;DHT22;10399;50.754;3.366;2023-05-02T08:18:31;15.80;99.90
20481;DHT22;10399;50.754;3.366;2023-05-02T08:20:58;16.00;99.90
20481;DHT22;10399;50.754;3.366;2023-05-02T08:23:24;16.20;99.90
20481;DHT22;10399;50.754;3.366;2023-05-02T08:25:53;16.00;99.90
20481;DHT22;10399;50.754;3.366;2023-05-02T08:28:20;16.10;99.90
20481;DHT22;10399;50.754;3.366;2023-05-02T08:30:46;16.10;99.90
20481;DHT22;10399;50.754;3.366;2023-05-02T08:33:14;16.00;99.90
20481;DHT22;10399;50.754;3.366;2023-05-02T08:35:41;16.10;99.90
20481;DHT22;10399;50.754;3.366;2023-05-02T08:38:09;16.30;99.90
20481;DHT22;10399;50.754;3.366;2023-05-02T08:40:37;16.50;99.90
20481;DHT22;10399;50.754;3.366;2023-05-02T08:43:10;16.60;99.90
20481;DHT22;10399;50.754;3.366;2023-05-02T08:45:42;16.80;99.90
20481;DHT22;10399;50.754;3.366;2023-05-02T08:48:11;16.90;99.90
20481;DHT22;10399;50.754;3.366;2023-05-02T08:50:41;16.90;99.90
20481;DHT22;10399;50.754;3.366;2023-05-02T08:53:10;16.90;99.90
20481;DHT22;10399;50.754;3.366;2023-05-02T08:55:38;17.00;99.90
20481;DHT22;10399;50.754;3.366;2023-05-02T08:58:08;17.00;99.90
20481;DHT22;10399;50.754;3.366;2023-05-02T09:00:41;17.10;99.90
20481;DHT22;10399;50.754;3.366;2023-05-02T09:05:52;17.00;99.90
20481;DHT22;10399;50.754;3.366;2023-05-02T09:08:23;17.20;99.90
20481;DHT22;10399;50.754;3.366;2023-05-02T09:10:50;17.30;99.90
20481;DHT22;10399;50.754;3.366;2023-05-02T09:13:38;17.60;99.90
20481;DHT22;10399;50.754;3.366;2023-05-02T09:16:09;17.80;99.90
20481;DHT22;10399;50.754;3.366;2023-05-02T09:18:44;18.00;99.90
20481;DHT22;10399;50.754;3.366;2023-05-02T09:21:39;18.10;99.90
20481;DHT22;10399;50.754;3.366;2023-05-02T09:24:19;18.30;99.90
20481;DHT22;10399;50.754;3.366;2023-05-02T09:27:01;18.50;99.90
20481;DHT22;10399;50.754;3.366;2023-05-02T09:29:33;18.50;99.90
20481;DHT22;10399;50.754;3.366;2023-05-02T09:32:05;18.80;99.90
20481;DHT22;10399;50.754;3.366;2023-05-02T09:34:33;19.10;99.90
20481;DHT22;10399;50.754;3.366;2023-05-02T09:37:00;19.50;99.90
20481;DHT22;10399;50.754;3.366;2023-05-02T09:39:28;19.70;99.90
20481;DHT22;10399;50.754;3.366;2023-05-02T09:41:56;19.80;99.90
20481;DHT22;10399;50.754;3.366;2023-05-02T09:44:25;20.10;99.90
20481;DHT22;10399;50.754;3.366;2023-05-02T09:46:54;20.00;99.90
20481;DHT22;10399;50.754;3.366;2023-05-02T09:52:12;19.50;99.90
20481;DHT22;10399;50.754;3.366;2023-05-02T09:54:40;19.50;99.90
20481;DHT22;10399;50.754;3.366;2023-05-02T09:57:10;19.50;99.90
20481;DHT22;10399;50.754;3.366;2023-05-02T09:59:40;19.20;99.90
20481;DHT22;10399;50.754;3.366;2023-05-02T10:02:07;19.00;99.90
20481;DHT22;10399;50.754;3.366;2023-05-02T10:04:43;18.20;99.90
20481;DHT22;10399;50.754;3.366;2023-05-02T10:07:13;18.60;99.90
20481;DHT22;10399;50.754;3.366;2023-05-02T10:09:45;18.60;99.90
20481;DHT22;10399;50.754;3.366;2023-05-02T10:12:14;18.70;99.90
20481;DHT22;10399;50.754;3.366;2023-05-02T10:14:47;18.60;99.90
20481;DHT22;10399;50.754;3.366;2023-05-02T10:17:21;18.60;99.90
20481;DHT22;10399;50.754;3.366;2023-05-02T10:20:01;18.50;99.90
20481;DHT22;10399;50.754;3.366;2023-05-02T10:22:29;18.50;99.90
20481;DHT22;10399;50.754;3.366;2023-05-02T10:24:58;18.70;99.90
20481;DHT22;10399;50.754;3.366;2023-05-02T10:27:28;18.60;99.90
20481;DHT22;10399;50.754;3.366;2023-05-02T10:29:57;18.70;99.90
20481;DHT22;10399;50.754;3.366;2023-05-02T10:32:28;18.60;99.90
20481;DHT22;10399;50.754;3.366;2023-05-02T10:34:56;18.90;99.90
20481;DHT22;10399;50.754;3.366;2023-05-02T10:37:25;19.20;99.90
20481;DHT22;10399;50.754;3.366;2023-05-02T10:39:53;19.20;99.90
20481;DHT22;10399;50.754;3.366;2023-05-02T10:42:20;19.50;99.90
20481;DHT22;10399;50.754;3.366;2023-05-02T10:44:48;19.80;99.90
20481;DHT22;10399;50.754;3.366;2023-05-02T10:49:55;20.40;99.90
20481;DHT22;10399;50.754;3.366;2023-05-02T10:52:28;21.00;99.90
20481;DHT22;10399;50.754;3.366;2023-05-02T10:55:16;21.40;99.90
20481;DHT22;10399;50.754;3.366;2023-05-02T11:00:34;21.80;99.90
20481;DHT22;10399;50.754;3.366;2023-05-02T11:03:03;21.90;99.90
20481;DHT22;10399;50.754;3.366;2023-05-02T11:05:31;22.40;99.90
20481;DHT22;10399;50.754;3.366;2023-05-02T11:10:45;22.20;99.90
20481;DHT22;10399;50.754;3.366;2023-05-02T11:13:12;22.50;99.90
20481;DHT22;10399;50.754;3.366;2023-05-02T11:20:35;23.20;99.90
20481;DHT22;10399;50.754;3.366;2023-05-02T11:25:52;23.20;99.90
20481;DHT22;10399;50.754;3.366;2023-05-02T11:28:41;22.70;99.90
20481;DHT22;10399;50.754;3.366;2023-05-02T11:33:57;22.20;99.90
20481;DHT22;10399;50.754;3.366;2023-05-02T11:36:32;22.50;99.90
20481;DHT22;10399;50.754;3.366;2023-05-02T11:39:00;22.30;99.90
20481;DHT22;10399;50.754;3.366;2023-05-02T11:41:41;22.80;99.90
20481;DHT22;10399;50.754;3.366;2023-05-02T11:44:09;23.60;99.90
20481;DHT22;10399;50.754;3.366;2023-05-02T11:46:37;23.80;99.90
20481;DHT22;10399;50.754;3.366;2023-05-02T11:49:05;23.60;99.90
20481;DHT22;10399;50.754;3.366;2023-05-02T11:51:35;24.00;99.90
20481;DHT22;10399;50.754;3.366;2023-05-02T11:54:03;23.70;99.90
20481;DHT22;10399;50.754;3.366;2023-05-02T11:56:30;23.20;99.90
20481;DHT22;10399;50.754;3.366;2023-05-02T11:59:02;22.90;99.90
20481;DHT22;10399;50.754;3.366;2023-05-02T12:01:29;22.70;99.90
20481;DHT22;10399;50.754;3.366;2023-05-02T12:04:04;22.90;99.90
20481;DHT22;10399;50.754;3.366;2023-05-02T12:06:33;22.50;99.90
20481;DHT22;10399;50.754;3.366;2023-05-02T12:09:12;22.50;99.90
20481;DHT22;10399;50.754;3.366;2023-05-02T12:11:40;22.80;99.90
20481;DHT22;10399;50.754;3.366;2023-05-02T12:14:07;23.00;99.90
20481;DHT22;10399;50.754;3.366;2023-05-02T12:16:35;23.00;99.90
20481;DHT22;10399;50.754;3.366;2023-05-02T12:19:02;23.40;99.90
20481;DHT22;10399;50.754;3.366;2023-05-02T12:21:31;23.50;99.90
20481;DHT22;10399;50.754;3.366;2023-05-02T12:24:00;23.70;99.90
20481;DHT22;10399;50.754;3.366;2023-05-02T12:26:27;24.30;99.90
20481;DHT22;10399;50.754;3.366;2023-05-02T12:28:59;24.40;99.90
20481;DHT22;10399;50.754;3.366;2023-05-02T12:31:28;24.40;99.90
20481;DHT22;10399;50.754;3.366;2023-05-02T12:33:57;24.50;99.90
20481;DHT22;10399;50.754;3.366;2023-05-02T12:36:27;24.20;99.90
20481;DHT22;10399;50.754;3.366;2023-05-02T12:38:56;24.10;99.90
20481;DHT22;10399;50.754;3.366;2023-05-02T12:41:37;24.30;99.90
20481;DHT22;10399;50.754;3.366;2023-05-02T12:44:05;24.40;99.90
20481;DHT22;10399;50.754;3.366;2023-05-02T12:46:33;24.60;99.90
20481;DHT22;10399;50.754;3.366;2023-05-02T12:49:04;24.30;99.90
20481;DHT22;10399;50.754;3.366;2023-05-02T12:51:31;24.50;99.90
20481;DHT22;10399;50.754;3.366;2023-05-02T12:54:00;24.80;99.90
20481;DHT22;10399;50.754;3.366;2023-05-02T12:56:28;25.00;99.90
20481;DHT22;10399;50.754;3.366;2023-05-02T12:58:58;25.20;99.90
20481;DHT22;10399;50.754;3.366;2023-05-02T13:01:27;25.50;99.90
20481;DHT22;10399;50.754;3.366;2023-05-02T13:03:54;25.20;99.90
20481;DHT22;10399;50.754;3.366;2023-05-02T13:06:22;25.40;99.90
20481;DHT22;10399;50.754;3.366;2023-05-02T13:08:54;25.20;99.40
20481;DHT22;10399;50.754;3.366;2023-05-02T13:11:20;24.40;99.90
20481;DHT22;10399;50.754;3.366;2023-05-02T13:13:47;24.50;99.90
20481;DHT22;10399;50.754;3.366;2023-05-02T13:16:14;24.90;99.90
20481;DHT22;10399;50.754;3.366;2023-05-02T13:18:42;25.30;99.90
20481;DHT22;10399;50.754;3.366;2023-05-02T13:21:12;25.10;98.20
20481;DHT22;10399;50.754;3.366;2023-05-02T13:23:39;24.90;98.80
20481;DHT22;10399;50.754;3.366;2023-05-02T13:26:06;24.90;98.60
20481;DHT22;10399;50.754;3.366;2023-05-02T13:28:33;25.00;98.70
20481;DHT22;10399;50.754;3.366;2023-05-02T13:31:03;24.80;97.70
20481;DHT22;10399;50.754;3.366;2023-05-02T13:33:30;24.30;98.00
20481;DHT22;10399;50.754;3.366;2023-05-02T13:35:57;24.20;96.60
20481;DHT22;10399;50.754;3.366;2023-05-02T13:38:24;24.40;97.00
20481;DHT22;10399;50.754;3.366;2023-05-02T13:40:53;24.30;98.40
20481;DHT22;10399;50.754;3.366;2023-05-02T13:43:20;25.00;99.80
20481;DHT22;10399;50.754;3.366;2023-05-02T13:45:47;25.00;99.40
20481;DHT22;10399;50.754;3.366;2023-05-02T13:48:14;25.10;98.40
20481;DHT22;10399;50.754;3.366;2023-05-02T13:50:42;25.30;98.20
20481;DHT22;10399;50.754;3.366;2023-05-02T13:53:09;25.60;96.50
20481;DHT22;10399;50.754;3.366;2023-05-02T13:55:36;25.10;97.50
20481;DHT22;10399;50.754;3.366;2023-05-02T13:58:03;24.90;99.90
20481;DHT22;10399;50.754;3.366;2023-05-02T14:00:31;25.70;96.60
20481;DHT22;10399;50.754;3.366;2023-05-02T14:02:58;25.20;96.10
20481;DHT22;10399;50.754;3.366;2023-05-02T14:05:26;24.30;97.20
20481;DHT22;10399;50.754;3.366;2023-05-02T14:07:53;24.40;97.70
20481;DHT22;10399;50.754;3.366;2023-05-02T14:10:20;24.70;97.00
20481;DHT22;10399;50.754;3.366;2023-05-02T14:12:47;25.10;97.30
20481;DHT22;10399;50.754;3.366;2023-05-02T14:15:14;25.40;96.60
20481;DHT22;10399;50.754;3.366;2023-05-02T14:17:41;25.20;95.10
20481;DHT22;10399;50.754;3.366;2023-05-02T14:20:08;25.60;96.10
20481;DHT22;10399;50.754;3.366;2023-05-02T14:22:36;25.60;95.30
20481;DHT22;10399;50.754;3.366;2023-05-02T14:25:04;25.10;96.00
20481;DHT22;10399;50.754;3.366;2023-05-02T14:27:31;25.50;96.30
20481;DHT22;10399;50.754;3.366;2023-05-02T14:29:58;25.50;96.20
20481;DHT22;10399;50.754;3.366;2023-05-02T14:32:26;25.60;95.60
20481;DHT22;10399;50.754;3.366;2023-05-02T14:34:53;25.00;94.60
20481;DHT22;10399;50.754;3.366;2023-05-02T14:37:21;24.40;95.60
20481;DHT22;10399;50.754;3.366;2023-05-02T14:39:47;24.50;96.20
20481;DHT22;10399;50.754;3.366;2023-05-02T14:42:26;24.50;96.20
20481;DHT22;10399;50.754;3.366;2023-05-02T14:44:53;24.80;97.20
20481;DHT22;10399;50.754;3.366;2023-05-02T14:47:23;25.20;95.90
20481;DHT22;10399;50.754;3.366;2023-05-02T14:49:51;25.20;95.90
20481;DHT22;10399;50.754;3.366;2023-05-02T14:52:18;25.00;95.80
20481;DHT22;10399;50.754;3.366;2023-05-02T14:54:45;25.50;95.40
20481;DHT22;10399;50.754;3.366;2023-05-02T14:57:12;25.20;94.50
20481;DHT22;10399;50.754;3.366;2023-05-02T14:59:40;25.00;95.20
20481;DHT22;10399;50.754;3.366;2023-05-02T15:02:09;25.30;94.90
20481;DHT22;10399;50.754;3.366;2023-05-02T15:04:36;25.00;93.30
20481;DHT22;10399;50.754;3.366;2023-05-02T15:07:04;24.50;93.50
20481;DHT22;10399;50.754;3.366;2023-05-02T15:09:31;24.10;95.20
20481;DHT22;10399;50.754;3.366;2023-05-02T15:11:58;24.10;94.90
20481;DHT22;10399;50.754;3.366;2023-05-02T15:14:25;24.20;95.00
20481;DHT22;10399;50.754;3.366;2023-05-02T15:16:52;24.20;95.10
20481;DHT22;10399;50.754;3.366;2023-05-02T15:19:20;24.40;94.20
20481;DHT22;10399;50.754;3.366;2023-05-02T15:21:50;24.50;94.70
20481;DHT22;10399;50.754;3.366;2023-05-02T15:24:20;24.60;94.60
20481;DHT22;10399;50.754;3.366;2023-05-02T15:26:47;24.20;94.30
20481;DHT22;10399;50.754;3.366;2023-05-02T15:29:15;24.50;93.80
20481;DHT22;10399;50.754;3.366;2023-05-02T15:31:42;24.50;93.40
20481;DHT22;10399;50.754;3.366;2023-05-02T15:34:09;24.30;94.90
20481;DHT22;10399;50.754;3.366;2023-05-02T15:36:37;24.10;94.10
20481;DHT22;10399;50.754;3.366;2023-05-02T15:39:04;24.00;94.60
20481;DHT22;10399;50.754;3.366;2023-05-02T15:41:32;24.00;94.80
20481;DHT22;10399;50.754;3.366;2023-05-02T15:43:59;24.00;94.20
20481;DHT22;10399;50.754;3.366;2023-05-02T15:46:26;24.20;93.70
20481;DHT22;10399;50.754;3.366;2023-05-02T15:48:53;24.30;93.50
20481;DHT22;10399;50.754;3.366;2023-05-02T15:51:20;24.30;94.20
20481;DHT22;10399;50.754;3.366;2023-05-02T15:53:48;24.20;93.90
20481;DHT22;10399;50.754;3.366;2023-05-02T15:56:17;23.90;94.60
20481;DHT22;10399;50.754;3.366;2023-05-02T15:58:48;23.70;94.60
20481;DHT22;10399;50.754;3.366;2023-05-02T16:01:15;23.70;94.10
20481;DHT22;10399;50.754;3.366;2023-05-02T16:03:42;23.80;93.00
20481;DHT22;10399;50.754;3.366;2023-05-02T16:06:10;23.70;92.70
20481;DHT22;10399;50.754;3.366;2023-05-02T16:08:37;23.40;92.50
20481;DHT22;10399;50.754;3.366;2023-05-02T16:11:05;23.40;94.20
20481;DHT22;10399;50.754;3.366;2023-05-02T16:13:32;23.30;95.40
20481;DHT22;10399;50.754;3.366;2023-05-02T16:15:59;22.90;95.30
20481;DHT22;10399;50.754;3.366;2023-05-02T16:18:26;22.70;95.90
20481;DHT22;10399;50.754;3.366;2023-05-02T16:20:56;22.90;96.30
20481;DHT22;10399;50.754;3.366;2023-05-02T16:23:24;23.00;96.40
20481;DHT22;10399;50.754;3.366;2023-05-02T16:26:00;23.40;95.70
20481;DHT22;10399;50.754;3.366;2023-05-02T16:28:28;23.00;95.10
20481;DHT22;10399;50.754;3.366;2023-05-02T16:30:55;22.70;96.40
20481;DHT22;10399;50.754;3.366;2023-05-02T16:33:22;22.50;96.80
20481;DHT22;10399;50.754;3.366;2023-05-02T16:35:59;22.20;96.50